createdAt,value
2019-04-03T00:02:15.560Z,71.77
2019-04-03T00:04:50.012Z,71.35
2019-04-03T00:07:21.461Z,71.30
2019-04-03T00:09:51.690Z,71.07
2019-04-03T00:12:21.891Z,71.47
2019-04-03T00:14:52.033Z,71.62
2019-04-03T00:17:22.135Z,71.41
2019-04-03T00:19:52.307Z,71.36
2019-04-03T00:22:22.477Z,71.38
2019-04-03T00:24:52.937Z,71.23
2019-04-03T00:27:23.178Z,71.26
2019-04-03T00:29:54.327Z,71.17
2019-04-03T00:32:24.661Z,71.61
2019-04-03T00:34:55.077Z,72.45
2019-04-03T00:37:25.479Z,71.92
2019-04-03T00:39:55.660Z,71.71
2019-04-03T00:42:25.986Z,71.71
2019-04-03T00:44:56.574Z,71.82
2019-04-03T00:47:26.832Z,71.75
2019-04-03T00:49:57.187Z,72.08
2019-04-03T00:52:28.345Z,72.18
2019-04-03T00:54:58.820Z,72.24
2019-04-03T00:57:29.305Z,72.52
2019-04-03T00:59:59.667Z,72.39
2019-04-03T01:02:30.056Z,72.89
2019-04-03T01:05:00.613Z,72.82
2019-04-03T01:07:30.929Z,72.46
2019-04-03T01:10:01.301Z,72.54
2019-04-03T01:12:31.748Z,72.61
2019-04-03T01:15:02.338Z,72.62
2019-04-03T01:17:34.875Z,72.28
2019-04-03T01:20:07.006Z,72.40
2019-04-03T01:22:39.163Z,72.42
2019-04-03T01:25:09.597Z,72.38
2019-04-03T01:27:41.585Z,72.13
2019-04-03T01:30:14.016Z,72.18
2019-04-03T01:32:46.065Z,71.91
2019-04-03T01:35:17.468Z,71.89
2019-04-03T01:37:50.065Z,71.94
2019-04-03T01:40:20.835Z,72.55
2019-04-03T01:42:52.758Z,72.53
2019-04-03T01:45:25.249Z,71.99
2019-04-03T01:47:57.624Z,73.79
2019-04-03T01:50:28.643Z,72.63
2019-04-03T01:53:01.775Z,73.02
2019-04-03T01:55:34.126Z,73.38
2019-04-03T01:58:06.321Z,73.18
2019-04-03T02:00:37.639Z,74.01
2019-04-03T02:03:09.750Z,73.84
2019-04-03T02:05:40.108Z,74.10
2019-04-03T02:08:10.879Z,74.11
2019-04-03T02:10:41.400Z,74.26
2019-04-03T02:13:12.567Z,73.99
2019-04-03T02:15:42.716Z,74.06
2019-04-03T02:18:13.602Z,74.23
2019-04-03T02:20:44.802Z,74.85
2019-04-03T02:23:16.131Z,74.01
2019-04-03T02:25:46.333Z,75.21
2019-04-03T02:28:16.601Z,75.67
2019-04-03T02:30:47.337Z,75.00
2019-04-03T02:33:17.839Z,74.68
2019-04-03T02:35:48.292Z,74.61
2019-04-03T02:38:21.445Z,74.56
2019-04-03T02:40:50.758Z,74.41
2019-04-03T02:43:21.029Z,74.32
2019-04-03T02:45:51.758Z,74.75
2019-04-03T02:48:22.124Z,75.30
2019-04-03T02:50:52.847Z,75.57
2019-04-03T02:53:27.524Z,74.97
2019-04-03T02:56:00.801Z,74.89
2019-04-03T02:58:32.789Z,74.88
2019-04-03T03:01:06.010Z,74.68
2019-04-03T03:03:34.896Z,74.68
2019-04-03T03:06:07.407Z,74.78
2019-04-03T03:08:40.361Z,75.27
2019-04-03T03:11:09.997Z,74.99
2019-04-03T03:13:41.411Z,74.91
2019-04-03T03:16:14.576Z,74.99
2019-04-03T03:18:44.705Z,74.80
2019-04-03T03:21:15.217Z,75.07
2019-04-03T03:23:45.902Z,75.37
2019-04-03T03:26:17.618Z,76.08
2019-04-03T03:28:48.458Z,75.76
2019-04-03T03:31:19.504Z,75.60
2019-04-03T03:33:50.257Z,75.35
2019-04-03T03:36:24.871Z,75.18
2019-04-03T03:38:54.420Z,75.14
2019-04-03T03:41:24.865Z,75.53
2019-04-03T03:43:57.781Z,75.36
2019-04-03T03:46:30.574Z,75.34
2019-04-03T03:49:04.853Z,75.46
2019-04-03T03:51:36.501Z,75.36
2019-04-03T03:54:07.652Z,75.39
2019-04-03T03:56:38.351Z,75.43
2019-04-03T03:59:12.146Z,76.25
2019-04-03T04:01:42.920Z,75.81
2019-04-03T04:04:15.281Z,75.75
2019-04-03T04:06:45.160Z,75.66
2019-04-03T04:09:18.443Z,75.88
2019-04-03T04:11:48.635Z,76.32
2019-04-03T04:14:22.514Z,75.98
2019-04-03T04:16:51.254Z,75.92
2019-04-03T04:19:22.628Z,76.00
2019-04-03T04:21:58.562Z,75.89
2019-04-03T04:24:30.773Z,76.04
2019-04-03T04:27:03.193Z,76.22
2019-04-03T04:29:32.826Z,76.12
2019-04-03T04:32:02.921Z,76.59
2019-04-03T04:34:33.065Z,76.63
2019-04-03T04:37:03.284Z,76.56
2019-04-03T04:39:38.860Z,76.98
2019-04-03T04:42:09.025Z,77.07
2019-04-03T04:44:41.245Z,76.49
2019-04-03T04:47:15.784Z,76.36
2019-04-03T04:49:45.959Z,76.49
2019-04-03T04:52:18.112Z,76.48
2019-04-03T04:54:48.987Z,76.25
2019-04-03T04:57:19.159Z,76.45
2019-04-03T04:59:49.628Z,76.65
2019-04-03T05:02:20.456Z,76.31
2019-04-03T05:04:50.674Z,78.19
2019-04-03T05:07:20.803Z,77.27
2019-04-03T05:09:51.142Z,76.62
2019-04-03T05:12:21.285Z,76.34
2019-04-03T05:14:51.405Z,76.78
2019-04-03T05:17:21.696Z,76.83
2019-04-03T05:19:51.979Z,76.71
2019-04-03T05:22:23.965Z,76.70
2019-04-03T05:24:53.981Z,76.34
2019-04-03T05:27:24.336Z,76.14
2019-04-03T05:29:54.686Z,75.70
2019-04-03T05:32:26.317Z,75.40
2019-04-03T05:34:56.576Z,75.89
2019-04-03T05:37:27.409Z,75.64
2019-04-03T05:39:57.840Z,75.85
2019-04-03T05:42:29.185Z,76.52
2019-04-03T05:45:03.864Z,76.54
2019-04-03T05:47:33.939Z,75.95
2019-04-03T05:50:04.768Z,76.00
2019-04-03T05:52:35.423Z,75.62
2019-04-03T05:55:06.060Z,75.93
2019-04-03T05:57:36.314Z,75.91
2019-04-03T06:00:07.505Z,75.73
2019-04-03T06:02:37.907Z,76.29
2019-04-03T06:05:08.219Z,75.67
2019-04-03T06:07:38.452Z,74.96
2019-04-03T06:10:08.742Z,76.19
2019-04-03T06:12:44.581Z,75.95
2019-04-03T06:15:13.741Z,75.69
2019-04-03T06:17:43.960Z,75.40
2019-04-03T06:20:14.166Z,74.98
2019-04-03T06:22:44.383Z,74.50
2019-04-03T06:25:14.580Z,73.88
2019-04-03T06:27:46.293Z,74.06
2019-04-03T06:30:16.631Z,74.09
2019-04-03T06:32:47.633Z,74.15
2019-04-03T06:35:17.757Z,74.13
2019-04-03T06:37:48.078Z,73.53
2019-04-03T06:40:18.495Z,73.80
2019-04-03T06:42:48.820Z,73.90
2019-04-03T06:45:19.088Z,74.10
2019-04-03T06:47:49.259Z,73.45
2019-04-03T06:50:19.532Z,72.97
2019-04-03T06:52:49.775Z,72.86
2019-04-03T06:55:20.077Z,72.56
2019-04-03T06:57:54.874Z,72.50
2019-04-03T07:00:25.705Z,72.25
2019-04-03T07:02:55.909Z,71.94
2019-04-03T07:05:27.756Z,72.30
2019-04-03T07:08:00.596Z,72.43
2019-04-03T07:10:29.799Z,72.27
2019-04-03T07:13:00.494Z,72.75
2019-04-03T07:15:30.740Z,71.58
2019-04-03T07:18:01.764Z,72.08
2019-04-03T07:20:32.492Z,72.62
2019-04-03T07:23:03.740Z,71.45
2019-04-03T07:25:34.684Z,71.68
2019-04-03T07:28:08.279Z,71.48
2019-04-03T07:30:38.030Z,71.14
2019-04-03T07:33:08.155Z,72.07
2019-04-03T07:35:40.631Z,70.59
2019-04-03T07:38:11.834Z,71.52
2019-04-03T07:40:43.668Z,70.72
2019-04-03T07:43:14.320Z,70.92
2019-04-03T07:45:44.844Z,71.03
2019-04-03T07:48:17.202Z,70.54
2019-04-03T07:50:47.707Z,70.62
2019-04-03T07:53:19.880Z,68.82
2019-04-03T07:55:49.882Z,70.46
2019-04-03T07:58:20.087Z,69.07
2019-04-03T08:00:50.546Z,69.39
2019-04-03T08:03:21.613Z,68.65
2019-04-03T08:05:51.841Z,69.10
2019-04-03T08:08:22.203Z,68.18
2019-04-03T08:10:52.331Z,67.46
2019-04-03T08:13:22.897Z,68.74
2019-04-03T08:15:53.819Z,67.55
2019-04-03T08:18:24.186Z,66.27
2019-04-03T08:20:55.135Z,66.54
2019-04-03T08:23:26.084Z,66.39
2019-04-03T08:25:56.193Z,66.35
2019-04-03T08:28:29.557Z,67.27
2019-04-03T08:30:58.066Z,67.65
2019-04-03T08:33:28.333Z,67.41
2019-04-03T08:35:58.525Z,68.42
2019-04-03T08:38:28.640Z,68.71
2019-04-03T08:40:59.364Z,69.41
2019-04-03T08:43:31.526Z,68.73
2019-04-03T08:46:01.841Z,70.10
2019-04-03T08:48:32.951Z,69.12
2019-04-03T08:51:03.923Z,69.30
2019-04-03T08:53:35.106Z,69.56
2019-04-03T08:56:05.702Z,70.23
2019-04-03T08:58:36.461Z,70.54
2019-04-03T09:01:06.595Z,70.20
2019-04-03T09:03:36.676Z,70.55
2019-04-03T09:06:07.649Z,69.73
2019-04-03T09:08:37.831Z,69.30
2019-04-03T09:11:08.249Z,69.48
2019-04-03T09:13:38.399Z,68.35
2019-04-03T09:16:10.090Z,69.48
2019-04-03T09:18:40.390Z,69.28
2019-04-03T09:21:10.584Z,67.94
2019-04-03T09:23:40.713Z,67.35
2019-04-03T09:26:10.972Z,67.84
2019-04-03T09:28:42.193Z,67.67
2019-04-03T09:31:12.626Z,68.76
2019-04-03T09:33:42.780Z,67.12
2019-04-03T09:36:12.915Z,67.63
2019-04-03T09:38:43.003Z,66.41
2019-04-03T09:41:13.157Z,67.58
2019-04-03T09:43:43.696Z,67.43
2019-04-03T09:46:13.856Z,69.22
2019-04-03T09:48:43.989Z,69.68
2019-04-03T09:51:14.242Z,69.12
2019-04-03T09:53:44.475Z,70.67
2019-04-03T09:56:14.605Z,72.01
2019-04-03T09:58:44.788Z,71.75
2019-04-03T10:01:17.969Z,69.48
2019-04-03T10:03:46.791Z,70.07
2019-04-03T10:06:17.312Z,69.13
2019-04-03T10:08:47.835Z,69.11
2019-04-03T10:11:20.465Z,68.65
2019-04-03T10:13:49.869Z,68.95
2019-04-03T10:16:21.204Z,68.73
2019-04-03T10:18:51.448Z,69.53
2019-04-03T10:21:22.222Z,70.07
2019-04-03T10:24:02.137Z,69.96
2019-04-03T10:26:32.428Z,67.88
2019-04-03T10:29:03.374Z,66.31
2019-04-03T10:31:36.370Z,66.50
2019-04-03T10:34:06.500Z,66.82
2019-04-03T10:36:36.950Z,65.75
2019-04-03T10:39:11.250Z,66.87
2019-04-03T10:41:41.697Z,65.96
2019-04-03T10:44:13.010Z,65.73
2019-04-03T10:46:43.969Z,65.27
2019-04-03T10:49:19.465Z,64.69
2019-04-03T10:51:49.660Z,65.37
2019-04-03T10:54:21.911Z,63.17
2019-04-03T10:56:54.526Z,62.99
2019-04-03T10:59:25.309Z,63.71
2019-04-03T11:01:57.379Z,64.71
2019-04-03T11:04:27.603Z,64.91
2019-04-03T11:06:57.905Z,65.27
2019-04-03T11:09:37.210Z,63.85
2019-04-03T11:12:10.734Z,64.09
2019-04-03T11:14:41.523Z,65.08
2019-04-03T11:17:12.042Z,62.06
2019-04-03T11:19:44.237Z,61.92
2019-04-03T11:22:16.717Z,60.48
2019-04-03T11:24:47.543Z,62.73
2019-04-03T11:27:17.809Z,61.20
2019-04-03T11:29:52.712Z,63.52
2019-04-03T11:32:23.740Z,61.50
2019-04-03T11:34:54.394Z,62.64
2019-04-03T11:37:26.265Z,64.07
2019-04-03T11:40:03.905Z,61.30
2019-04-03T11:42:31.156Z,61.10
2019-04-03T11:45:04.615Z,60.05
2019-04-03T11:47:33.344Z,60.16
2019-04-03T11:50:03.873Z,61.05
2019-04-03T11:52:34.290Z,62.20
2019-04-03T11:55:04.660Z,61.06
2019-04-03T11:57:35.138Z,62.43
2019-04-03T12:00:09.653Z,59.81
2019-04-03T12:02:43.463Z,60.00
2019-04-03T12:05:14.759Z,62.20
2019-04-03T12:07:43.924Z,60.28
2019-04-03T12:10:14.646Z,59.30
2019-04-03T12:12:45.101Z,59.82
2019-04-03T12:15:16.437Z,59.03
2019-04-03T12:17:46.627Z,58.06
2019-04-03T12:20:17.698Z,59.46
2019-04-03T12:22:47.934Z,59.70
2019-04-03T12:25:23.083Z,58.41
2019-04-03T12:27:53.607Z,58.61
2019-04-03T12:30:26.355Z,60.34
2019-04-03T12:32:55.746Z,57.28
2019-04-03T12:35:26.178Z,58.76
2019-04-03T12:37:56.791Z,59.43
2019-04-03T12:40:27.045Z,57.49
2019-04-03T12:42:57.683Z,58.21
2019-04-03T12:45:28.312Z,58.15
2019-04-03T12:47:58.924Z,55.56
2019-04-03T12:50:29.267Z,55.79
2019-04-03T12:52:59.902Z,57.73
2019-04-03T12:55:30.292Z,57.47
2019-04-03T12:58:02.328Z,56.64
2019-04-03T13:00:33.653Z,56.18
2019-04-03T13:03:04.568Z,55.91
2019-04-03T13:05:37.413Z,56.42
2019-04-03T13:08:06.716Z,57.67
2019-04-03T13:10:43.173Z,57.76
2019-04-03T13:13:12.445Z,57.13
2019-04-03T13:15:42.741Z,56.09
2019-04-03T13:18:13.467Z,56.14
2019-04-03T13:20:44.091Z,56.46
2019-04-03T13:23:15.569Z,56.27
2019-04-03T13:25:46.027Z,56.13
2019-04-03T13:28:16.243Z,56.19
2019-04-03T13:30:46.543Z,55.78
2019-04-03T13:33:17.832Z,56.06
2019-04-03T13:35:49.131Z,55.49
2019-04-03T13:38:22.873Z,54.66
2019-04-03T13:40:53.283Z,53.79
2019-04-03T13:43:23.708Z,53.27
2019-04-03T13:45:53.876Z,52.31
2019-04-03T13:48:24.060Z,54.95
2019-04-03T13:50:55.426Z,53.73
2019-04-03T13:53:27.891Z,54.44
2019-04-03T13:55:58.351Z,54.89
2019-04-03T13:58:29.006Z,54.92
2019-04-03T14:01:02.414Z,55.86
2019-04-03T14:03:31.337Z,57.38
2019-04-03T14:06:02.205Z,57.22
2019-04-03T14:08:34.181Z,56.41
2019-04-03T14:11:04.872Z,55.81
2019-04-03T14:13:35.280Z,55.29
2019-04-03T14:16:18.190Z,54.14
2019-04-03T14:18:40.222Z,54.34
2019-04-03T14:21:10.790Z,54.22
2019-04-03T14:23:42.084Z,56.51
2019-04-03T14:26:14.298Z,57.95
2019-04-03T14:28:44.366Z,56.01
2019-04-03T14:31:16.686Z,56.43
2019-04-03T14:33:47.139Z,58.23
2019-04-03T14:36:19.227Z,58.26
2019-04-03T14:38:49.693Z,56.28
2019-04-03T14:41:19.899Z,57.36
2019-04-03T14:43:50.185Z,57.31
2019-04-03T14:46:20.459Z,56.21
2019-04-03T14:48:57.783Z,56.23
2019-04-03T14:51:28.527Z,54.78
2019-04-03T14:53:58.780Z,55.39
2019-04-03T14:56:33.260Z,56.32
2019-04-03T14:59:03.729Z,55.82
2019-04-03T15:01:34.167Z,56.27
2019-04-03T15:04:04.510Z,55.52
2019-04-03T15:06:36.422Z,54.14
2019-04-03T15:09:13.656Z,54.30
2019-04-03T15:11:43.838Z,55.32
2019-04-03T15:14:14.232Z,57.88
2019-04-03T15:16:53.039Z,59.33
2019-04-03T15:19:23.992Z,59.97
2019-04-03T15:21:58.892Z,60.23
2019-04-03T15:24:27.330Z,60.86
2019-04-03T15:27:00.070Z,60.89
2019-04-03T15:29:36.862Z,60.08
2019-04-03T15:32:09.787Z,59.44
2019-04-03T15:34:41.488Z,58.33
2019-04-03T15:37:15.774Z,57.77
2019-04-03T15:39:50.638Z,57.63
2019-04-03T15:42:23.273Z,57.59
2019-04-03T15:44:57.166Z,56.39
2019-04-03T15:47:35.258Z,57.15
2019-04-03T15:50:03.180Z,57.82
2019-04-03T15:52:56.203Z,58.39
2019-04-03T15:55:26.558Z,56.68
2019-04-03T15:57:56.867Z,55.29
2019-04-03T16:00:28.410Z,54.27
2019-04-03T16:02:59.089Z,53.50
2019-04-03T16:05:31.270Z,53.16
2019-04-03T16:08:01.962Z,53.28
2019-04-03T16:10:32.781Z,54.15
2019-04-03T16:13:06.979Z,54.65
2019-04-03T16:15:40.155Z,55.06
2019-04-03T16:18:10.418Z,55.66
2019-04-03T16:20:41.418Z,56.36
2019-04-03T16:23:14.975Z,57.58
2019-04-03T16:25:45.174Z,58.54
2019-04-03T16:28:24.002Z,58.82
2019-04-03T16:30:55.853Z,59.47
2019-04-03T16:33:28.979Z,59.13
2019-04-03T16:35:59.753Z,59.67
2019-04-03T16:38:30.178Z,59.52
2019-04-03T16:41:02.348Z,59.38
2019-04-03T16:43:32.433Z,59.18
2019-04-03T16:46:02.851Z,59.38
2019-04-03T16:48:33.910Z,59.67
2019-04-03T16:51:06.564Z,59.47
2019-04-03T16:53:49.968Z,60.05
2019-04-03T16:56:22.085Z,60.52
2019-04-03T16:58:52.425Z,61.22
2019-04-03T17:01:28.084Z,61.02
2019-04-03T17:04:02.841Z,61.17
2019-04-03T17:06:32.139Z,61.52
2019-04-03T17:09:05.557Z,62.09
2019-04-03T17:11:38.512Z,62.94
2019-04-03T17:14:09.014Z,63.61
2019-04-03T17:16:40.207Z,63.59
2019-04-03T17:19:15.803Z,63.91
2019-04-03T17:21:49.516Z,64.12
2019-04-03T17:24:19.845Z,63.82
2019-04-03T17:26:56.071Z,63.65
2019-04-03T17:29:28.097Z,63.63
2019-04-03T17:31:58.844Z,63.58
2019-04-03T17:34:33.887Z,63.82
2019-04-03T17:37:07.875Z,63.98
2019-04-03T17:39:38.088Z,63.26
2019-04-03T17:42:08.620Z,63.70
2019-04-03T17:44:40.454Z,63.82
2019-04-03T17:47:12.483Z,64.80
2019-04-03T17:49:47.724Z,65.07
2019-04-03T17:52:20.238Z,65.53
2019-04-03T17:54:50.456Z,65.91
2019-04-03T17:57:24.313Z,66.55
2019-04-03T17:59:54.453Z,66.47
2019-04-03T18:02:25.111Z,66.67
2019-04-03T18:04:55.553Z,66.32
2019-04-03T18:07:28.290Z,66.44
2019-04-03T18:10:00.000Z,66.46
2019-04-03T18:12:33.637Z,66.81
2019-04-03T18:15:03.917Z,66.74
2019-04-03T18:17:35.979Z,67.50
2019-04-03T18:20:08.374Z,68.08
2019-04-03T18:22:38.697Z,68.34
2019-04-03T18:25:09.953Z,68.85
2019-04-03T18:27:40.109Z,68.77
2019-04-03T18:30:11.867Z,69.19
2019-04-03T18:32:45.496Z,68.88
2019-04-03T18:35:14.670Z,68.45
2019-04-03T18:37:46.305Z,68.38
2019-04-03T18:40:16.467Z,67.95
2019-04-03T18:42:49.380Z,68.05
2019-04-03T18:45:24.995Z,67.67
2019-04-03T18:47:51.130Z,68.14
2019-04-03T18:50:21.631Z,68.08
2019-04-03T18:52:52.334Z,68.30
2019-04-03T18:55:23.070Z,68.28
2019-04-03T18:57:53.348Z,68.40
2019-04-03T19:00:23.436Z,68.26
2019-04-03T19:02:59.820Z,68.41
2019-04-03T19:05:34.152Z,68.91
2019-04-03T19:08:12.989Z,69.45
2019-04-03T19:10:36.571Z,69.28
2019-04-03T19:13:07.293Z,69.35
2019-04-03T19:15:37.677Z,68.98
2019-04-03T19:18:19.258Z,69.05
2019-04-03T19:20:41.398Z,68.99
2019-04-03T19:23:14.014Z,69.04
2019-04-03T19:25:44.170Z,69.32
2019-04-03T19:28:14.473Z,69.44
2019-04-03T19:30:44.860Z,70.16
2019-04-03T19:33:15.100Z,70.45
2019-04-03T19:35:45.345Z,70.39
2019-04-03T19:38:15.533Z,70.61
2019-04-03T19:40:45.750Z,70.43
2019-04-03T19:43:18.469Z,70.65
2019-04-03T19:45:49.904Z,71.22
2019-04-03T19:48:20.968Z,70.92
2019-04-03T19:50:51.370Z,71.04
2019-04-03T19:53:21.570Z,71.02
2019-04-03T19:55:54.390Z,71.21
2019-04-03T19:58:24.238Z,71.21
2019-04-03T20:00:54.466Z,71.20
2019-04-03T20:03:26.502Z,71.21
2019-04-03T20:05:56.726Z,71.21
2019-04-03T20:08:31.175Z,71.16
2019-04-03T20:11:04.712Z,71.42
2019-04-03T20:13:34.209Z,71.15
2019-04-03T20:16:04.372Z,71.43
2019-04-03T20:18:34.543Z,71.24
2019-04-03T20:21:05.539Z,71.23
2019-04-03T20:23:36.024Z,71.21
2019-04-03T20:26:06.180Z,71.68
2019-04-03T20:28:36.814Z,71.45
2019-04-03T20:31:07.144Z,71.69
2019-04-03T20:33:37.295Z,72.28
2019-04-03T20:36:07.466Z,72.29
2019-04-03T20:38:37.689Z,72.19
2019-04-03T20:41:07.910Z,73.04
2019-04-03T20:43:38.356Z,73.12
2019-04-03T20:46:09.319Z,73.37
2019-04-03T20:48:39.518Z,73.05
2019-04-03T20:51:10.653Z,73.50
2019-04-03T20:53:40.731Z,73.39
2019-04-03T20:56:10.863Z,73.46
2019-04-03T20:58:41.163Z,73.03
2019-04-03T21:01:13.838Z,73.18
2019-04-03T21:03:44.308Z,73.27
2019-04-03T21:06:14.894Z,73.11
2019-04-03T21:08:45.915Z,73.33
2019-04-03T21:11:16.052Z,73.63
2019-04-03T21:13:46.511Z,74.28
2019-04-03T21:16:16.938Z,75.31
2019-04-03T21:18:47.622Z,76.21
2019-04-03T21:21:19.054Z,76.60
2019-04-03T21:23:49.376Z,77.27
2019-04-03T21:26:19.504Z,77.78
2019-04-03T21:28:49.727Z,77.55
2019-04-03T21:31:19.888Z,77.51
2019-04-03T21:33:51.269Z,78.28
2019-04-03T21:36:22.482Z,78.13
2019-04-03T21:38:52.604Z,79.35
2019-04-03T21:41:22.714Z,75.35
2019-04-03T21:43:55.353Z,77.12
2019-04-03T21:46:24.754Z,79.27
2019-04-03T21:48:54.920Z,79.98
2019-04-03T21:51:25.093Z,80.46
2019-04-03T21:53:56.504Z,81.00
2019-04-03T21:56:26.734Z,80.38
2019-04-03T21:58:56.828Z,80.38
2019-04-03T22:01:28.219Z,80.41
2019-04-03T22:03:58.368Z,79.57
2019-04-03T22:06:28.632Z,80.51
2019-04-03T22:09:00.362Z,81.30
2019-04-03T22:11:34.783Z,81.97
2019-04-03T22:14:04.528Z,82.50
2019-04-03T22:16:34.734Z,83.84
2019-04-03T22:19:04.923Z,84.04
2019-04-03T22:21:44.808Z,84.18
2019-04-03T22:24:15.120Z,83.82
2019-04-03T22:26:45.781Z,83.99
2019-04-03T22:29:16.010Z,83.94
2019-04-03T22:31:46.376Z,83.56
2019-04-03T22:34:19.348Z,84.08
2019-04-03T22:36:49.593Z,83.70
2019-04-03T22:39:20.684Z,84.24
2019-04-03T22:41:51.009Z,84.56
2019-04-03T22:44:21.536Z,84.13
2019-04-03T22:46:54.131Z,83.75
2019-04-03T22:49:24.342Z,83.96
2019-04-03T22:51:54.668Z,83.73
2019-04-03T22:54:24.847Z,83.44
2019-04-03T22:56:55.069Z,83.26
2019-04-03T22:59:25.319Z,83.16
2019-04-03T23:01:55.532Z,83.58
2019-04-03T23:04:25.923Z,83.57
2019-04-03T23:06:56.398Z,84.33
2019-04-03T23:09:26.720Z,84.24
2019-04-03T23:11:57.022Z,84.95
2019-04-03T23:14:27.303Z,84.26
2019-04-03T23:16:57.557Z,83.92
2019-04-03T23:19:28.083Z,84.44
2019-04-03T23:21:59.459Z,84.29
2019-04-03T23:24:29.900Z,84.32
2019-04-03T23:27:02.378Z,84.43
2019-04-03T23:29:32.292Z,84.35
2019-04-03T23:32:02.978Z,83.52
2019-04-03T23:34:33.319Z,84.32
2019-04-03T23:37:04.859Z,84.54
2019-04-03T23:39:35.200Z,84.26
2019-04-03T23:42:06.873Z,84.08
2019-04-03T23:44:37.748Z,84.35
2019-04-03T23:47:08.044Z,84.08
2019-04-03T23:49:41.006Z,84.76
2019-04-03T23:52:10.429Z,83.67
2019-04-03T23:54:40.726Z,84.08
2019-04-03T23:57:11.028Z,84.24
2019-04-03T23:59:42.434Z,84.27
